sensor_id;sensor_type;location;lat;lon;timestamp;P1;durP1;ratioP1;P2;durP2;ratioP2
65799;SDS011;52544;48.116;11.660;2022-12-05T00:00:30;23.70;;;9.45;;
65799;SDS011;52544;48.116;11.660;2022-12-05T00:02:56;21.17;;;8.95;;
65799;SDS011;52544;48.116;11.660;2022-12-05T00:05:22;18.98;;;8.50;;
65799;SDS011;52544;48.116;11.660;2022-12-05T00:07:47;20.40;;;8.82;;
65799;SDS011;52544;48.116;11.660;2022-12-05T00:10:13;21.55;;;9.05;;
65799;SDS011;52544;48.116;11.660;2022-12-05T00:12:38;21.83;;;9.38;;
65799;SDS011;52544;48.116;11.660;2022-12-05T00:15:04;22.58;;;9.23;;
65799;SDS011;52544;48.116;11.660;2022-12-05T00:17:30;19.67;;;8.13;;
65799;SDS011;52544;48.116;11.660;2022-12-05T00:19:56;21.48;;;9.15;;
65799;SDS011;52544;48.116;11.660;2022-12-05T00:22:22;19.73;;;8.30;;
65799;SDS011;52544;48.116;11.660;2022-12-05T00:24:48;19.55;;;8.52;;
65799;SDS011;52544;48.116;11.660;2022-12-05T00:27:13;21.75;;;8.45;;
65799;SDS011;52544;48.116;11.660;2022-12-05T00:29:39;19.63;;;8.25;;
65799;SDS011;52544;48.116;11.660;2022-12-05T00:32:04;22.15;;;8.45;;
65799;SDS011;52544;48.116;11.660;2022-12-05T00:34:29;23.02;;;9.02;;
65799;SDS011;52544;48.116;11.660;2022-12-05T00:36:55;18.65;;;8.93;;
65799;SDS011;52544;48.116;11.660;2022-12-05T00:39:20;21.92;;;9.07;;
65799;SDS011;52544;48.116;11.660;2022-12-05T00:41:46;19.92;;;9.00;;
65799;SDS011;52544;48.116;11.660;2022-12-05T00:44:11;20.50;;;8.52;;
65799;SDS011;52544;48.116;11.660;2022-12-05T00:46:37;20.05;;;8.13;;
65799;SDS011;52544;48.116;11.660;2022-12-05T00:49:04;21.05;;;8.60;;
65799;SDS011;52544;48.116;11.660;2022-12-05T00:51:37;17.45;;;8.35;;
65799;SDS011;52544;48.116;11.660;2022-12-05T00:54:06;22.02;;;8.45;;
65799;SDS011;52544;48.116;11.660;2022-12-05T00:56:33;20.88;;;8.13;;
65799;SDS011;52544;48.116;11.660;2022-12-05T00:58:59;22.40;;;9.02;;
65799;SDS011;52544;48.116;11.660;2022-12-05T01:01:27;19.73;;;8.07;;
65799;SDS011;52544;48.116;11.660;2022-12-05T01:03:58;18.85;;;8.55;;
65799;SDS011;52544;48.116;11.660;2022-12-05T01:06:26;18.83;;;7.50;;
65799;SDS011;52544;48.116;11.660;2022-12-05T01:08:52;20.35;;;8.63;;
65799;SDS011;52544;48.116;11.660;2022-12-05T01:11:19;19.27;;;7.78;;
65799;SDS011;52544;48.116;11.660;2022-12-05T01:13:47;21.35;;;7.72;;
65799;SDS011;52544;48.116;11.660;2022-12-05T01:16:18;21.17;;;8.60;;
65799;SDS011;52544;48.116;11.660;2022-12-05T01:18:55;19.83;;;8.43;;
65799;SDS011;52544;48.116;11.660;2022-12-05T01:21:22;21.90;;;8.77;;
65799;SDS011;52544;48.116;11.660;2022-12-05T01:23:48;21.20;;;8.55;;
65799;SDS011;52544;48.116;11.660;2022-12-05T01:26:14;20.67;;;8.60;;
65799;SDS011;52544;48.116;11.660;2022-12-05T01:28:41;21.92;;;8.90;;
65799;SDS011;52544;48.116;11.660;2022-12-05T01:31:08;20.23;;;8.77;;
65799;SDS011;52544;48.116;11.660;2022-12-05T01:33:40;18.65;;;8.00;;
65799;SDS011;52544;48.116;11.660;2022-12-05T01:36:08;16.50;;;7.88;;
65799;SDS011;52544;48.116;11.660;2022-12-05T01:38:35;19.40;;;8.02;;
65799;SDS011;52544;48.116;11.660;2022-12-05T01:41:01;23.42;;;8.93;;
65799;SDS011;52544;48.116;11.660;2022-12-05T01:43:29;20.48;;;8.75;;
65799;SDS011;52544;48.116;11.660;2022-12-05T01:45:55;24.50;;;9.25;;
65799;SDS011;52544;48.116;11.660;2022-12-05T01:48:25;21.15;;;9.05;;
65799;SDS011;52544;48.116;11.660;2022-12-05T01:50:58;18.23;;;7.72;;
65799;SDS011;52544;48.116;11.660;2022-12-05T01:53:25;23.33;;;9.00;;
65799;SDS011;52544;48.116;11.660;2022-12-05T01:55:52;21.92;;;9.02;;
65799;SDS011;52544;48.116;11.660;2022-12-05T01:58:19;20.27;;;9.23;;
65799;SDS011;52544;48.116;11.660;2022-12-05T02:00:45;18.23;;;8.68;;
65799;SDS011;52544;48.116;11.660;2022-12-05T02:03:14;24.65;;;9.50;;
65799;SDS011;52544;48.116;11.660;2022-12-05T02:05:42;24.55;;;9.35;;
65799;SDS011;52544;48.116;11.660;2022-12-05T02:08:12;21.10;;;9.07;;
65799;SDS011;52544;48.116;11.660;2022-12-05T02:10:49;22.50;;;9.45;;
65799;SDS011;52544;48.116;11.660;2022-12-05T02:30:56;22.05;;;9.05;;
65799;SDS011;52544;48.116;11.660;2022-12-05T02:33:28;26.35;;;10.48;;
65799;SDS011;52544;48.116;11.660;2022-12-05T02:36:06;21.73;;;10.27;;
65799;SDS011;52544;48.116;11.660;2022-12-05T02:41:25;28.05;;;10.95;;
65799;SDS011;52544;48.116;11.660;2022-12-05T02:47:21;26.05;;;10.07;;
65799;SDS011;52544;48.116;11.660;2022-12-05T02:49:49;26.52;;;9.75;;
65799;SDS011;52544;48.116;11.660;2022-12-05T02:52:16;27.17;;;10.90;;
65799;SDS011;52544;48.116;11.660;2022-12-05T02:54:43;30.08;;;11.15;;
65799;SDS011;52544;48.116;11.660;2022-12-05T02:57:12;28.27;;;10.65;;
65799;SDS011;52544;48.116;11.660;2022-12-05T02:59:39;22.25;;;9.70;;
65799;SDS011;52544;48.116;11.660;2022-12-05T03:02:07;26.38;;;10.55;;
65799;SDS011;52544;48.116;11.660;2022-12-05T03:04:32;27.77;;;10.48;;
65799;SDS011;52544;48.116;11.660;2022-12-05T03:07:06;24.77;;;10.93;;
65799;SDS011;52544;48.116;11.660;2022-12-05T03:09:39;29.50;;;11.13;;
65799;SDS011;52544;48.116;11.660;2022-12-05T03:12:15;27.27;;;10.70;;
65799;SDS011;52544;48.116;11.660;2022-12-05T03:14:50;28.98;;;10.55;;
65799;SDS011;52544;48.116;11.660;2022-12-05T03:17:24;24.95;;;9.82;;
65799;SDS011;52544;48.116;11.660;2022-12-05T03:22:36;22.35;;;9.75;;
65799;SDS011;52544;48.116;11.660;2022-12-05T03:25:22;24.20;;;10.05;;
65799;SDS011;52544;48.116;11.660;2022-12-05T03:28:02;24.90;;;10.98;;
65799;SDS011;52544;48.116;11.660;2022-12-05T03:30:34;27.08;;;10.85;;
65799;SDS011;52544;48.116;11.660;2022-12-05T03:33:16;30.95;;;10.25;;
65799;SDS011;52544;48.116;11.660;2022-12-05T03:38:24;22.52;;;9.15;;
65799;SDS011;52544;48.116;11.660;2022-12-05T03:49:06;23.30;;;9.07;;
65799;SDS011;52544;48.116;11.660;2022-12-05T03:54:25;21.85;;;9.50;;
65799;SDS011;52544;48.116;11.660;2022-12-05T03:56:58;22.45;;;9.25;;
65799;SDS011;52544;48.116;11.660;2022-12-05T03:59:45;23.98;;;9.80;;
65799;SDS011;52544;48.116;11.660;2022-12-05T04:02:32;23.05;;;9.88;;
65799;SDS011;52544;48.116;11.660;2022-12-05T04:05:02;27.92;;;10.02;;
65799;SDS011;52544;48.116;11.660;2022-12-05T04:07:33;20.70;;;9.43;;
65799;SDS011;52544;48.116;11.660;2022-12-05T04:10:04;23.05;;;10.90;;
65799;SDS011;52544;48.116;11.660;2022-12-05T04:12:33;27.95;;;9.85;;
65799;SDS011;52544;48.116;11.660;2022-12-05T04:15:03;25.52;;;10.93;;
65799;SDS011;52544;48.116;11.660;2022-12-05T04:20:13;25.15;;;10.60;;
65799;SDS011;52544;48.116;11.660;2022-12-05T04:23:01;27.52;;;10.77;;
65799;SDS011;52544;48.116;11.660;2022-12-05T04:25:29;32.65;;;11.63;;
65799;SDS011;52544;48.116;11.660;2022-12-05T04:28:09;27.88;;;10.93;;
65799;SDS011;52544;48.116;11.660;2022-12-05T04:30:49;22.90;;;9.23;;
65799;SDS011;52544;48.116;11.660;2022-12-05T04:36:36;21.70;;;9.88;;
65799;SDS011;52544;48.116;11.660;2022-12-05T04:39:04;24.40;;;10.13;;
65799;SDS011;52544;48.116;11.660;2022-12-05T04:41:43;23.30;;;9.57;;
65799;SDS011;52544;48.116;11.660;2022-12-05T04:44:14;21.98;;;9.63;;
65799;SDS011;52544;48.116;11.660;2022-12-05T04:46:43;22.73;;;9.73;;
65799;SDS011;52544;48.116;11.660;2022-12-05T04:49:13;19.42;;;8.07;;
65799;SDS011;52544;48.116;11.660;2022-12-05T04:51:43;21.75;;;9.05;;
65799;SDS011;52544;48.116;11.660;2022-12-05T04:54:33;21.92;;;9.50;;
65799;SDS011;52544;48.116;11.660;2022-12-05T04:57:04;20.92;;;9.30;;
65799;SDS011;52544;48.116;11.660;2022-12-05T04:59:33;23.20;;;9.70;;
65799;SDS011;52544;48.116;11.660;2022-12-05T05:02:02;22.95;;;9.60;;
65799;SDS011;52544;48.116;11.660;2022-12-05T05:04:45;21.67;;;9.82;;
65799;SDS011;52544;48.116;11.660;2022-12-05T05:07:13;21.02;;;9.23;;
65799;SDS011;52544;48.116;11.660;2022-12-05T05:09:39;21.95;;;9.25;;
65799;SDS011;52544;48.116;11.660;2022-12-05T05:12:05;23.50;;;9.48;;
65799;SDS011;52544;48.116;11.660;2022-12-05T05:14:31;22.67;;;10.40;;
65799;SDS011;52544;48.116;11.660;2022-12-05T05:16:57;23.83;;;9.38;;
65799;SDS011;52544;48.116;11.660;2022-12-05T05:19:22;23.13;;;9.10;;
65799;SDS011;52544;48.116;11.660;2022-12-05T05:21:48;24.63;;;9.38;;
65799;SDS011;52544;48.116;11.660;2022-12-05T05:24:15;25.48;;;9.82;;
65799;SDS011;52544;48.116;11.660;2022-12-05T05:26:41;21.73;;;9.10;;
65799;SDS011;52544;48.116;11.660;2022-12-05T05:29:08;27.17;;;11.30;;
65799;SDS011;52544;48.116;11.660;2022-12-05T05:31:35;28.27;;;10.98;;
65799;SDS011;52544;48.116;11.660;2022-12-05T05:34:01;22.05;;;9.23;;
65799;SDS011;52544;48.116;11.660;2022-12-05T05:36:27;27.10;;;10.57;;
65799;SDS011;52544;48.116;11.660;2022-12-05T05:38:54;24.20;;;9.27;;
65799;SDS011;52544;48.116;11.660;2022-12-05T05:41:22;22.85;;;10.13;;
65799;SDS011;52544;48.116;11.660;2022-12-05T05:43:58;23.95;;;9.23;;
65799;SDS011;52544;48.116;11.660;2022-12-05T05:46:24;26.58;;;11.13;;
65799;SDS011;52544;48.116;11.660;2022-12-05T05:48:54;24.42;;;9.75;;
65799;SDS011;52544;48.116;11.660;2022-12-05T05:51:20;23.58;;;9.88;;
65799;SDS011;52544;48.116;11.660;2022-12-05T05:53:47;26.63;;;10.85;;
65799;SDS011;52544;48.116;11.660;2022-12-05T05:56:14;23.63;;;10.32;;
65799;SDS011;52544;48.116;11.660;2022-12-05T05:58:41;25.83;;;10.18;;
65799;SDS011;52544;48.116;11.660;2022-12-05T06:03:44;19.90;;;9.57;;
65799;SDS011;52544;48.116;11.660;2022-12-05T06:06:11;21.73;;;9.43;;
65799;SDS011;52544;48.116;11.660;2022-12-05T06:08:38;21.30;;;9.02;;
65799;SDS011;52544;48.116;11.660;2022-12-05T06:11:05;25.17;;;10.18;;
65799;SDS011;52544;48.116;11.660;2022-12-05T06:13:35;25.27;;;9.55;;
65799;SDS011;52544;48.116;11.660;2022-12-05T06:16:03;23.02;;;9.65;;
65799;SDS011;52544;48.116;11.660;2022-12-05T06:18:30;24.92;;;9.35;;
65799;SDS011;52544;48.116;11.660;2022-12-05T06:20:56;26.67;;;10.43;;
65799;SDS011;52544;48.116;11.660;2022-12-05T06:23:22;27.30;;;10.85;;
65799;SDS011;52544;48.116;11.660;2022-12-05T06:25:49;24.25;;;10.73;;
65799;SDS011;52544;48.116;11.660;2022-12-05T06:28:16;28.15;;;10.50;;
65799;SDS011;52544;48.116;11.660;2022-12-05T06:30:41;28.90;;;11.05;;
65799;SDS011;52544;48.116;11.660;2022-12-05T06:33:07;28.65;;;10.68;;
65799;SDS011;52544;48.116;11.660;2022-12-05T06:35:32;31.52;;;11.50;;
65799;SDS011;52544;48.116;11.660;2022-12-05T06:37:58;27.05;;;10.82;;
65799;SDS011;52544;48.116;11.660;2022-12-05T06:40:23;25.60;;;10.45;;
65799;SDS011;52544;48.116;11.660;2022-12-05T06:42:49;25.77;;;10.45;;
65799;SDS011;52544;48.116;11.660;2022-12-05T06:45:14;29.00;;;11.43;;
65799;SDS011;52544;48.116;11.660;2022-12-05T06:47:39;28.27;;;11.02;;
65799;SDS011;52544;48.116;11.660;2022-12-05T06:50:05;26.85;;;10.70;;
65799;SDS011;52544;48.116;11.660;2022-12-05T06:52:31;25.00;;;9.80;;
65799;SDS011;52544;48.116;11.660;2022-12-05T06:54:57;29.52;;;10.63;;
65799;SDS011;52544;48.116;11.660;2022-12-05T06:57:23;25.33;;;10.93;;
65799;SDS011;52544;48.116;11.660;2022-12-05T06:59:49;27.17;;;10.90;;
65799;SDS011;52544;48.116;11.660;2022-12-05T07:02:14;23.10;;;9.75;;
65799;SDS011;52544;48.116;11.660;2022-12-05T07:04:40;24.35;;;10.35;;
65799;SDS011;52544;48.116;11.660;2022-12-05T07:07:05;25.02;;;9.85;;
65799;SDS011;52544;48.116;11.660;2022-12-05T07:09:31;23.45;;;8.73;;
65799;SDS011;52544;48.116;11.660;2022-12-05T07:12:22;27.55;;;12.50;;
65799;SDS011;52544;48.116;11.660;2022-12-05T07:14:48;24.67;;;10.75;;
65799;SDS011;52544;48.116;11.660;2022-12-05T07:17:13;29.02;;;10.57;;
65799;SDS011;52544;48.116;11.660;2022-12-05T07:19:38;25.15;;;10.60;;
65799;SDS011;52544;48.116;11.660;2022-12-05T07:22:04;24.08;;;10.82;;
65799;SDS011;52544;48.116;11.660;2022-12-05T07:24:29;24.85;;;10.93;;
65799;SDS011;52544;48.116;11.660;2022-12-05T07:26:55;21.52;;;9.50;;
65799;SDS011;52544;48.116;11.660;2022-12-05T07:29:21;25.55;;;10.45;;
65799;SDS011;52544;48.116;11.660;2022-12-05T07:31:46;23.77;;;10.40;;
65799;SDS011;52544;48.116;11.660;2022-12-05T07:34:12;30.77;;;12.05;;
65799;SDS011;52544;48.116;11.660;2022-12-05T07:36:37;31.15;;;11.40;;
65799;SDS011;52544;48.116;11.660;2022-12-05T07:39:03;25.73;;;10.35;;
65799;SDS011;52544;48.116;11.660;2022-12-05T07:41:30;25.15;;;10.60;;
65799;SDS011;52544;48.116;11.660;2022-12-05T07:43:57;23.92;;;10.40;;
65799;SDS011;52544;48.116;11.660;2022-12-05T07:46:24;26.73;;;11.07;;
65799;SDS011;52544;48.116;11.660;2022-12-05T07:48:51;25.20;;;9.77;;
65799;SDS011;52544;48.116;11.660;2022-12-05T07:51:17;27.02;;;9.75;;
65799;SDS011;52544;48.116;11.660;2022-12-05T07:53:43;21.58;;;9.60;;
65799;SDS011;52544;48.116;11.660;2022-12-05T07:56:10;43.65;;;15.82;;
65799;SDS011;52544;48.116;11.660;2022-12-05T07:58:38;42.05;;;16.17;;
65799;SDS011;52544;48.116;11.660;2022-12-05T08:01:04;31.92;;;12.32;;
65799;SDS011;52544;48.116;11.660;2022-12-05T08:03:40;25.98;;;10.15;;
65799;SDS011;52544;48.116;11.660;2022-12-05T08:06:10;25.88;;;10.00;;
65799;SDS011;52544;48.116;11.660;2022-12-05T08:08:40;21.35;;;9.40;;
65799;SDS011;52544;48.116;11.660;2022-12-05T08:11:07;25.38;;;11.60;;
65799;SDS011;52544;48.116;11.660;2022-12-05T08:13:37;24.95;;;10.80;;
65799;SDS011;52544;48.116;11.660;2022-12-05T08:16:03;22.73;;;10.15;;
65799;SDS011;52544;48.116;11.660;2022-12-05T08:18:31;23.10;;;10.02;;
65799;SDS011;52544;48.116;11.660;2022-12-05T08:21:03;25.02;;;10.73;;
65799;SDS011;52544;48.116;11.660;2022-12-05T08:23:31;24.65;;;10.07;;
65799;SDS011;52544;48.116;11.660;2022-12-05T08:26:04;23.45;;;10.00;;
65799;SDS011;52544;48.116;11.660;2022-12-05T08:28:40;22.27;;;9.90;;
65799;SDS011;52544;48.116;11.660;2022-12-05T08:31:11;25.15;;;10.55;;
65799;SDS011;52544;48.116;11.660;2022-12-05T08:33:39;25.05;;;10.07;;
65799;SDS011;52544;48.116;11.660;2022-12-05T08:36:09;23.85;;;10.57;;
65799;SDS011;52544;48.116;11.660;2022-12-05T08:38:35;24.33;;;10.18;;
65799;SDS011;52544;48.116;11.660;2022-12-05T08:41:02;25.98;;;11.00;;
65799;SDS011;52544;48.116;11.660;2022-12-05T08:43:29;23.55;;;10.07;;
65799;SDS011;52544;48.116;11.660;2022-12-05T08:45:55;24.63;;;10.77;;
65799;SDS011;52544;48.116;11.660;2022-12-05T08:48:21;26.40;;;11.02;;
65799;SDS011;52544;48.116;11.660;2022-12-05T08:50:47;19.98;;;9.65;;
65799;SDS011;52544;48.116;11.660;2022-12-05T08:53:12;24.98;;;10.57;;
65799;SDS011;52544;48.116;11.660;2022-12-05T08:55:38;24.60;;;10.65;;
65799;SDS011;52544;48.116;11.660;2022-12-05T08:58:04;26.63;;;11.30;;
65799;SDS011;52544;48.116;11.660;2022-12-05T09:00:30;22.20;;;10.88;;
65799;SDS011;52544;48.116;11.660;2022-12-05T09:02:56;26.55;;;11.15;;
65799;SDS011;52544;48.116;11.660;2022-12-05T09:05:22;22.08;;;10.07;;
65799;SDS011;52544;48.116;11.660;2022-12-05T09:07:48;25.42;;;11.57;;
65799;SDS011;52544;48.116;11.660;2022-12-05T09:10:14;23.95;;;11.23;;
65799;SDS011;52544;48.116;11.660;2022-12-05T09:12:39;23.10;;;10.32;;
65799;SDS011;52544;48.116;11.660;2022-12-05T09:15:05;25.05;;;10.52;;
65799;SDS011;52544;48.116;11.660;2022-12-05T09:17:32;29.08;;;11.68;;
65799;SDS011;52544;48.116;11.660;2022-12-05T09:19:58;24.35;;;11.52;;
65799;SDS011;52544;48.116;11.660;2022-12-05T09:22:23;24.08;;;11.10;;
65799;SDS011;52544;48.116;11.660;2022-12-05T09:24:49;26.58;;;11.93;;
65799;SDS011;52544;48.116;11.660;2022-12-05T09:27:14;32.03;;;12.77;;
65799;SDS011;52544;48.116;11.660;2022-12-05T09:29:40;25.33;;;11.77;;
65799;SDS011;52544;48.116;11.660;2022-12-05T09:32:06;27.33;;;11.93;;
65799;SDS011;52544;48.116;11.660;2022-12-05T09:34:32;27.50;;;12.45;;
65799;SDS011;52544;48.116;11.660;2022-12-05T09:36:58;27.60;;;12.00;;
65799;SDS011;52544;48.116;11.660;2022-12-05T09:39:26;25.17;;;10.75;;
65799;SDS011;52544;48.116;11.660;2022-12-05T09:41:58;25.15;;;12.20;;
65799;SDS011;52544;48.116;11.660;2022-12-05T09:49:38;25.15;;;10.82;;
65799;SDS011;52544;48.116;11.660;2022-12-05T09:52:16;25.15;;;10.45;;
65799;SDS011;52544;48.116;11.660;2022-12-05T09:54:49;28.83;;;11.88;;
65799;SDS011;52544;48.116;11.660;2022-12-05T09:57:16;31.35;;;11.27;;
65799;SDS011;52544;48.116;11.660;2022-12-05T09:59:48;23.92;;;11.25;;
65799;SDS011;52544;48.116;11.660;2022-12-05T10:02:21;25.10;;;10.20;;
65799;SDS011;52544;48.116;11.660;2022-12-05T10:04:54;25.40;;;11.32;;
65799;SDS011;52544;48.116;11.660;2022-12-05T10:07:36;28.33;;;13.32;;
65799;SDS011;52544;48.116;11.660;2022-12-05T10:13:28;23.15;;;10.55;;
65799;SDS011;52544;48.116;11.660;2022-12-05T10:15:56;22.48;;;9.38;;
65799;SDS011;52544;48.116;11.660;2022-12-05T10:18:40;27.77;;;11.38;;
65799;SDS011;52544;48.116;11.660;2022-12-05T10:21:24;23.63;;;11.15;;
65799;SDS011;52544;48.116;11.660;2022-12-05T10:24:00;23.63;;;11.13;;
65799;SDS011;52544;48.116;11.660;2022-12-05T10:26:29;24.13;;;10.57;;
65799;SDS011;52544;48.116;11.660;2022-12-05T10:29:00;20.13;;;10.02;;
65799;SDS011;52544;48.116;11.660;2022-12-05T10:31:36;23.80;;;10.43;;
65799;SDS011;52544;48.116;11.660;2022-12-05T10:34:05;24.00;;;9.77;;
65799;SDS011;52544;48.116;11.660;2022-12-05T10:36:39;20.52;;;9.93;;
65799;SDS011;52544;48.116;11.660;2022-12-05T10:39:15;22.58;;;10.32;;
65799;SDS011;52544;48.116;11.660;2022-12-05T10:41:40;20.17;;;10.57;;
65799;SDS011;52544;48.116;11.660;2022-12-05T10:44:06;21.13;;;9.80;;
65799;SDS011;52544;48.116;11.660;2022-12-05T10:46:31;24.75;;;10.73;;
65799;SDS011;52544;48.116;11.660;2022-12-05T10:48:57;29.42;;;8.65;;
65799;SDS011;52544;48.116;11.660;2022-12-05T10:51:24;24.05;;;9.98;;
65799;SDS011;52544;48.116;11.660;2022-12-05T10:53:52;22.25;;;10.30;;
65799;SDS011;52544;48.116;11.660;2022-12-05T10:59:08;27.42;;;10.70;;
65799;SDS011;52544;48.116;11.660;2022-12-05T11:01:37;20.23;;;9.52;;
65799;SDS011;52544;48.116;11.660;2022-12-05T11:04:21;25.70;;;10.13;;
65799;SDS011;52544;48.116;11.660;2022-12-05T11:06:50;22.95;;;10.32;;
65799;SDS011;52544;48.116;11.660;2022-12-05T11:09:27;19.25;;;9.05;;
65799;SDS011;52544;48.116;11.660;2022-12-05T11:14:52;21.70;;;9.65;;
65799;SDS011;52544;48.116;11.660;2022-12-05T11:17:25;22.73;;;9.05;;
65799;SDS011;52544;48.116;11.660;2022-12-05T11:19:56;22.00;;;9.02;;
65799;SDS011;52544;48.116;11.660;2022-12-05T11:22:28;33.63;;;9.43;;
65799;SDS011;52544;48.116;11.660;2022-12-05T11:24:55;20.73;;;9.70;;
65799;SDS011;52544;48.116;11.660;2022-12-05T11:27:25;21.75;;;9.77;;
65799;SDS011;52544;48.116;11.660;2022-12-05T11:29:58;18.88;;;9.30;;
65799;SDS011;52544;48.116;11.660;2022-12-05T11:32:30;23.63;;;9.40;;
65799;SDS011;52544;48.116;11.660;2022-12-05T11:37:46;22.88;;;9.88;;
65799;SDS011;52544;48.116;11.660;2022-12-05T11:56:39;20.67;;;8.82;;
65799;SDS011;52544;48.116;11.660;2022-12-05T12:02:02;20.83;;;8.65;;
65799;SDS011;52544;48.116;11.660;2022-12-05T12:15:09;20.00;;;9.52;;
65799;SDS011;52544;48.116;11.660;2022-12-05T12:17:55;19.40;;;8.75;;
65799;SDS011;52544;48.116;11.660;2022-12-05T12:20:26;18.85;;;8.80;;
65799;SDS011;52544;48.116;11.660;2022-12-05T12:34:32;19.95;;;9.52;;
65799;SDS011;52544;48.116;11.660;2022-12-05T12:37:12;15.13;;;8.30;;
65799;SDS011;52544;48.116;11.660;2022-12-05T12:39:51;18.70;;;9.40;;
65799;SDS011;52544;48.116;11.660;2022-12-05T12:42:37;12.80;;;6.97;;
65799;SDS011;52544;48.116;11.660;2022-12-05T12:48:20;16.02;;;7.10;;
65799;SDS011;52544;48.116;11.660;2022-12-05T12:50:53;13.95;;;7.28;;
65799;SDS011;52544;48.116;11.660;2022-12-05T12:53:24;16.63;;;9.00;;
65799;SDS011;52544;48.116;11.660;2022-12-05T12:56:20;11.80;;;5.88;;
65799;SDS011;52544;48.116;11.660;2022-12-05T13:01:58;12.15;;;6.43;;
65799;SDS011;52544;48.116;11.660;2022-12-05T13:04:45;11.98;;;6.32;;
65799;SDS011;52544;48.116;11.660;2022-12-05T13:07:17;11.15;;;5.55;;
65799;SDS011;52544;48.116;11.660;2022-12-05T13:09:53;13.60;;;6.38;;
65799;SDS011;52544;48.116;11.660;2022-12-05T13:12:25;15.63;;;6.80;;
65799;SDS011;52544;48.116;11.660;2022-12-05T13:14:59;11.00;;;5.90;;
65799;SDS011;52544;48.116;11.660;2022-12-05T13:17:28;14.07;;;5.80;;
65799;SDS011;52544;48.116;11.660;2022-12-05T13:19:56;12.35;;;5.55;;
65799;SDS011;52544;48.116;11.660;2022-12-05T13:22:22;9.95;;;5.55;;
65799;SDS011;52544;48.116;11.660;2022-12-05T13:24:50;9.43;;;5.35;;
65799;SDS011;52544;48.116;11.660;2022-12-05T13:27:23;10.35;;;5.78;;
65799;SDS011;52544;48.116;11.660;2022-12-05T13:30:00;9.15;;;5.18;;
65799;SDS011;52544;48.116;11.660;2022-12-05T13:32:30;8.27;;;4.57;;
65799;SDS011;52544;48.116;11.660;2022-12-05T13:35:08;14.45;;;6.88;;
65799;SDS011;52544;48.116;11.660;2022-12-05T13:37:36;7.50;;;4.30;;
65799;SDS011;52544;48.116;11.660;2022-12-05T13:40:29;9.00;;;4.80;;
65799;SDS011;52544;48.116;11.660;2022-12-05T13:43:15;8.27;;;4.63;;
65799;SDS011;52544;48.116;11.660;2022-12-05T13:45:53;8.82;;;4.13;;
65799;SDS011;52544;48.116;11.660;2022-12-05T13:48:24;7.78;;;4.05;;
65799;SDS011;52544;48.116;11.660;2022-12-05T13:53:42;7.88;;;4.10;;
65799;SDS011;52544;48.116;11.660;2022-12-05T14:04:01;7.80;;;3.60;;
65799;SDS011;52544;48.116;11.660;2022-12-05T14:12:27;5.75;;;3.10;;
65799;SDS011;52544;48.116;11.660;2022-12-05T14:17:21;6.40;;;3.45;;
65799;SDS011;52544;48.116;11.660;2022-12-05T14:19:50;5.15;;;3.20;;
65799;SDS011;52544;48.116;11.660;2022-12-05T14:22:26;5.88;;;3.10;;
65799;SDS011;52544;48.116;11.660;2022-12-05T14:25:41;6.72;;;4.45;;
65799;SDS011;52544;48.116;11.660;2022-12-05T14:33:28;6.07;;;3.47;;
65799;SDS011;52544;48.116;11.660;2022-12-05T14:35:54;7.38;;;3.88;;
65799;SDS011;52544;48.116;11.660;2022-12-05T14:41:20;8.02;;;4.30;;
65799;SDS011;52544;48.116;11.660;2022-12-05T14:43:51;9.55;;;5.35;;
65799;SDS011;52544;48.116;11.660;2022-12-05T14:46:26;10.63;;;5.03;;
65799;SDS011;52544;48.116;11.660;2022-12-05T14:48:55;8.40;;;4.88;;
65799;SDS011;52544;48.116;11.660;2022-12-05T14:54:08;7.78;;;4.40;;
65799;SDS011;52544;48.116;11.660;2022-12-05T14:56:39;9.13;;;5.20;;
65799;SDS011;52544;48.116;11.660;2022-12-05T15:01:48;11.90;;;4.78;;
65799;SDS011;52544;48.116;11.660;2022-12-05T15:07:09;8.02;;;4.38;;
65799;SDS011;52544;48.116;11.660;2022-12-05T15:09:53;8.20;;;3.80;;
65799;SDS011;52544;48.116;11.660;2022-12-05T15:12:23;6.10;;;3.72;;
65799;SDS011;52544;48.116;11.660;2022-12-05T15:14:53;8.70;;;3.35;;
65799;SDS011;52544;48.116;11.660;2022-12-05T15:17:26;7.93;;;4.28;;
65799;SDS011;52544;48.116;11.660;2022-12-05T15:20:05;11.90;;;4.60;;
65799;SDS011;52544;48.116;11.660;2022-12-05T15:22:39;7.50;;;4.70;;
65799;SDS011;52544;48.116;11.660;2022-12-05T15:25:21;12.85;;;6.25;;
65799;SDS011;52544;48.116;11.660;2022-12-05T15:27:58;11.95;;;6.38;;
65799;SDS011;52544;48.116;11.660;2022-12-05T15:30:41;8.75;;;4.85;;
65799;SDS011;52544;48.116;11.660;2022-12-05T15:33:10;7.90;;;4.15;;
65799;SDS011;52544;48.116;11.660;2022-12-05T15:35:36;7.40;;;4.30;;
65799;SDS011;52544;48.116;11.660;2022-12-05T15:38:16;8.50;;;4.50;;
65799;SDS011;52544;48.116;11.660;2022-12-05T15:40:48;9.63;;;4.53;;
65799;SDS011;52544;48.116;11.660;2022-12-05T15:43:25;8.48;;;4.75;;
65799;SDS011;52544;48.116;11.660;2022-12-05T15:46:08;13.10;;;5.90;;
65799;SDS011;52544;48.116;11.660;2022-12-05T15:48:39;14.63;;;5.85;;
65799;SDS011;52544;48.116;11.660;2022-12-05T15:51:04;11.75;;;5.97;;
65799;SDS011;52544;48.116;11.660;2022-12-05T15:53:31;9.80;;;4.80;;
65799;SDS011;52544;48.116;11.660;2022-12-05T15:56:28;9.30;;;5.45;;
65799;SDS011;52544;48.116;11.660;2022-12-05T15:58:57;49.60;;;29.08;;
65799;SDS011;52544;48.116;11.660;2022-12-05T16:01:40;14.20;;;7.30;;
65799;SDS011;52544;48.116;11.660;2022-12-05T16:04:49;9.70;;;5.22;;
65799;SDS011;52544;48.116;11.660;2022-12-05T16:07:10;7.95;;;4.18;;
65799;SDS011;52544;48.116;11.660;2022-12-05T16:09:38;11.38;;;6.57;;
65799;SDS011;52544;48.116;11.660;2022-12-05T16:12:14;10.35;;;5.20;;
65799;SDS011;52544;48.116;11.660;2022-12-05T16:14:44;8.18;;;4.00;;
65799;SDS011;52544;48.116;11.660;2022-12-05T16:17:15;9.18;;;5.30;;
65799;SDS011;52544;48.116;11.660;2022-12-05T16:19:41;26.47;;;14.47;;
65799;SDS011;52544;48.116;11.660;2022-12-05T16:22:08;53.78;;;23.92;;
65799;SDS011;52544;48.116;11.660;2022-12-05T16:27:21;48.85;;;25.50;;
65799;SDS011;52544;48.116;11.660;2022-12-05T16:32:45;28.85;;;17.77;;
65799;SDS011;52544;48.116;11.660;2022-12-05T16:35:26;23.90;;;13.90;;
65799;SDS011;52544;48.116;11.660;2022-12-05T16:38:04;10.18;;;6.57;;
65799;SDS011;52544;48.116;11.660;2022-12-05T16:40:31;11.48;;;5.28;;
65799;SDS011;52544;48.116;11.660;2022-12-05T16:42:59;14.30;;;9.57;;
65799;SDS011;52544;48.116;11.660;2022-12-05T16:45:36;11.07;;;7.30;;
65799;SDS011;52544;48.116;11.660;2022-12-05T16:48:25;8.25;;;5.80;;
65799;SDS011;52544;48.116;11.660;2022-12-05T16:53:37;11.63;;;6.07;;
65799;SDS011;52544;48.116;11.660;2022-12-05T16:56:04;10.30;;;6.45;;
65799;SDS011;52544;48.116;11.660;2022-12-05T16:58:30;10.77;;;4.93;;
65799;SDS011;52544;48.116;11.660;2022-12-05T17:01:00;10.05;;;5.50;;
65799;SDS011;52544;48.116;11.660;2022-12-05T17:03:27;7.43;;;4.28;;
65799;SDS011;52544;48.116;11.660;2022-12-05T17:05:53;10.85;;;5.47;;
65799;SDS011;52544;48.116;11.660;2022-12-05T17:08:20;7.45;;;4.82;;
65799;SDS011;52544;48.116;11.660;2022-12-05T17:10:45;10.57;;;4.45;;
65799;SDS011;52544;48.116;11.660;2022-12-05T17:13:12;8.23;;;4.90;;